createdAt,value
2018-04-16T00:00:41.679Z,15.86
2018-04-16T00:03:09.267Z,15.85
2018-04-16T00:05:36.896Z,15.62
2018-04-16T00:08:04.520Z,15.57
2018-04-16T00:10:32.390Z,15.71
2018-04-16T00:12:59.990Z,15.81
2018-04-16T00:15:27.589Z,15.88
2018-04-16T00:17:55.203Z,15.86
2018-04-16T00:20:22.806Z,15.90
2018-04-16T00:22:50.423Z,15.93
2018-04-16T00:25:18.014Z,15.97
2018-04-16T00:27:45.645Z,15.96
2018-04-16T00:30:13.261Z,15.88
2018-04-16T00:32:46.867Z,15.88
2018-04-16T00:35:19.929Z,15.81
2018-04-16T00:37:53.237Z,15.80
2018-04-16T00:40:26.279Z,15.73
2018-04-16T00:42:59.331Z,16.10
2018-04-16T00:45:32.524Z,15.89
2018-04-16T00:48:05.719Z,15.80
2018-04-16T00:50:38.770Z,15.80
2018-04-16T00:53:12.134Z,15.82
2018-04-16T00:55:45.181Z,15.81
2018-04-16T00:58:18.477Z,15.79
2018-04-16T01:00:51.537Z,15.74
2018-04-16T01:06:33.299Z,15.72
2018-04-16T01:09:06.442Z,15.76
2018-04-16T01:11:39.457Z,15.77
2018-04-16T01:14:12.971Z,15.78
2018-04-16T01:16:46.129Z,15.75
2018-04-16T01:19:19.650Z,15.75
2018-04-16T01:21:52.738Z,15.76
2018-04-16T01:24:25.978Z,15.76
2018-04-16T01:26:59.210Z,15.64
2018-04-16T01:29:32.627Z,15.67
2018-04-16T01:35:13.169Z,15.66
2018-04-16T01:37:46.176Z,15.63
2018-04-16T01:40:19.418Z,15.63
2018-04-16T01:42:52.655Z,15.61
2018-04-16T01:45:26.294Z,15.58
2018-04-16T01:47:59.356Z,15.55
2018-04-16T01:53:37.316Z,15.50
2018-04-16T01:56:10.536Z,15.47
2018-04-16T01:58:43.595Z,15.41
2018-04-16T02:01:16.909Z,15.38
2018-04-16T02:03:49.970Z,15.30
2018-04-16T02:06:23.184Z,15.69
2018-04-16T02:08:56.271Z,15.32
2018-04-16T02:11:29.576Z,15.28
2018-04-16T02:14:02.606Z,15.37
2018-04-16T02:16:35.801Z,15.33
2018-04-16T02:19:08.814Z,15.35
2018-04-16T02:21:41.952Z,15.27
2018-04-16T02:24:14.982Z,14.98
2018-04-16T02:26:48.222Z,14.97
2018-04-16T02:29:21.330Z,14.95
2018-04-16T02:31:54.597Z,15.13
2018-04-16T02:34:27.738Z,15.13
2018-04-16T02:37:00.978Z,15.04
2018-04-16T02:39:33.950Z,15.17
2018-04-16T02:42:07.244Z,15.16
2018-04-16T02:44:40.406Z,15.22
2018-04-16T02:47:13.736Z,15.32
2018-04-16T02:49:46.771Z,15.63
2018-04-16T02:52:20.009Z,15.54
2018-04-16T02:54:53.174Z,15.40
2018-04-16T02:57:26.400Z,15.38
2018-04-16T03:03:07.924Z,15.33
2018-04-16T03:05:41.098Z,15.27
2018-04-16T03:08:14.154Z,15.29
2018-04-16T03:10:47.360Z,15.26
2018-04-16T03:13:20.571Z,15.27
2018-04-16T03:15:53.642Z,15.25
2018-04-16T03:18:26.809Z,15.29
2018-04-16T03:20:59.853Z,15.21
2018-04-16T03:23:33.095Z,15.22
2018-04-16T03:26:06.112Z,15.19
2018-04-16T03:28:39.293Z,15.19
2018-04-16T03:31:12.369Z,15.10
2018-04-16T03:33:45.587Z,15.09
2018-04-16T03:36:18.874Z,15.11
2018-04-16T03:38:52.104Z,15.05
2018-04-16T03:41:25.270Z,15.04
2018-04-16T03:43:58.477Z,15.04
2018-04-16T03:46:31.516Z,15.01
2018-04-16T03:49:04.763Z,15.05
2018-04-16T03:51:34.278Z,15.01
2018-04-16T03:54:01.896Z,14.94
2018-04-16T03:56:29.502Z,15.01
2018-04-16T03:58:57.135Z,15.01
2018-04-16T04:01:24.721Z,15.01
2018-04-16T04:03:52.323Z,14.94
2018-04-16T04:06:19.946Z,14.96
2018-04-16T04:08:47.543Z,14.95
2018-04-16T04:11:15.163Z,14.92
2018-04-16T04:13:42.763Z,14.91
2018-04-16T04:16:10.407Z,14.85
2018-04-16T04:18:38.002Z,14.80
2018-04-16T04:21:05.616Z,14.81
2018-04-16T04:23:45.023Z,14.88
2018-04-16T04:26:24.413Z,15.04
2018-04-16T04:29:03.803Z,14.92
2018-04-16T04:31:31.391Z,14.85
2018-04-16T04:33:59.326Z,14.66
2018-04-16T04:36:26.921Z,14.43
2018-04-16T04:38:54.515Z,14.43
2018-04-16T04:41:22.129Z,14.48
2018-04-16T04:43:49.725Z,14.50
2018-04-16T04:46:17.537Z,14.60
2018-04-16T04:48:45.129Z,14.61
2018-04-16T04:51:12.719Z,14.69
2018-04-16T04:53:40.337Z,15.05
2018-04-16T04:56:07.930Z,15.06
2018-04-16T04:58:35.550Z,14.97
2018-04-16T05:01:03.142Z,15.19
2018-04-16T05:03:30.971Z,15.23
2018-04-16T05:05:58.570Z,15.04
2018-04-16T05:08:26.157Z,15.17
2018-04-16T05:10:53.864Z,15.10
2018-04-16T05:13:21.462Z,15.09
2018-04-16T05:15:49.082Z,15.06
2018-04-16T05:18:16.672Z,14.99
2018-04-16T05:20:44.503Z,15.16
2018-04-16T05:23:12.104Z,15.15
2018-04-16T05:25:39.738Z,15.00
2018-04-16T05:28:07.362Z,15.01
2018-04-16T05:30:34.971Z,14.94
2018-04-16T05:33:02.594Z,14.88
2018-04-16T05:35:30.199Z,14.80
2018-04-16T05:37:57.845Z,14.62
2018-04-16T05:40:25.448Z,14.70
2018-04-16T05:42:53.273Z,14.86
2018-04-16T05:45:20.985Z,14.79
2018-04-16T05:47:48.582Z,14.71
2018-04-16T05:50:16.195Z,15.01
2018-04-16T05:52:43.819Z,14.92
2018-04-16T05:55:11.445Z,14.93
2018-04-16T05:57:39.052Z,15.13
2018-04-16T06:00:06.693Z,15.03
2018-04-16T06:02:34.299Z,15.15
2018-04-16T06:05:01.975Z,15.05
2018-04-16T06:07:29.598Z,15.23
2018-04-16T06:09:57.187Z,15.25
2018-04-16T06:12:24.820Z,15.17
2018-04-16T06:14:52.422Z,15.14
2018-04-16T06:17:20.081Z,15.09
2018-04-16T06:19:47.688Z,14.85
2018-04-16T06:22:15.286Z,15.13
2018-04-16T06:24:42.900Z,15.13
2018-04-16T06:27:10.516Z,15.13
2018-04-16T06:29:38.135Z,15.04
2018-04-16T06:32:05.728Z,15.10
2018-04-16T06:34:33.668Z,15.25
2018-04-16T06:37:01.325Z,15.07
2018-04-16T06:39:28.903Z,15.08
2018-04-16T06:41:56.547Z,15.04
2018-04-16T06:44:24.143Z,15.02
2018-04-16T06:46:51.782Z,15.10
2018-04-16T06:49:19.378Z,14.83
2018-04-16T06:51:47.203Z,15.06
2018-04-16T06:54:14.797Z,15.00
2018-04-16T06:56:42.447Z,15.04
2018-04-16T06:59:10.076Z,14.85
2018-04-16T07:01:37.688Z,15.05
2018-04-16T07:04:05.315Z,15.04
2018-04-16T07:06:32.919Z,15.07
2018-04-16T07:09:00.851Z,14.86
2018-04-16T07:11:28.454Z,15.01
2018-04-16T07:13:56.061Z,15.04
2018-04-16T07:16:23.685Z,14.97
2018-04-16T07:18:51.275Z,15.19
2018-04-16T07:21:18.893Z,15.10
2018-04-16T07:23:46.515Z,15.13
2018-04-16T07:26:14.367Z,14.99
2018-04-16T07:28:41.958Z,14.92
2018-04-16T07:31:09.743Z,14.87
2018-04-16T07:33:37.388Z,14.99
2018-04-16T07:36:04.986Z,15.04
2018-04-16T07:38:32.597Z,14.93
2018-04-16T07:41:00.219Z,14.88
2018-04-16T07:43:27.856Z,14.76
2018-04-16T07:45:55.458Z,14.95
2018-04-16T07:48:23.136Z,15.07
2018-04-16T07:50:50.994Z,14.86
2018-04-16T07:53:18.592Z,14.86
2018-04-16T07:55:46.262Z,15.01
2018-04-16T07:58:13.885Z,14.92
2018-04-16T08:00:41.974Z,15.04
2018-04-16T08:03:09.567Z,14.96
2018-04-16T08:05:37.171Z,15.07
2018-04-16T08:08:04.794Z,15.13
2018-04-16T08:10:32.387Z,15.22
2018-04-16T08:12:59.993Z,15.19
2018-04-16T08:15:27.582Z,15.18
2018-04-16T08:17:55.596Z,15.25
2018-04-16T08:20:23.189Z,15.40
2018-04-16T08:22:50.793Z,15.48
2018-04-16T08:25:18.411Z,15.34
2018-04-16T08:27:46.238Z,15.36
2018-04-16T08:30:14.437Z,15.46
2018-04-16T08:32:42.029Z,15.48
2018-04-16T08:35:09.669Z,15.63
2018-04-16T08:37:37.291Z,15.71
2018-04-16T08:40:04.901Z,15.92
2018-04-16T08:42:32.937Z,15.77
2018-04-16T08:45:00.530Z,15.80
2018-04-16T08:47:28.117Z,15.82
2018-04-16T08:49:55.730Z,15.98
2018-04-16T08:52:23.311Z,15.92
2018-04-16T08:54:51.455Z,15.94
2018-04-16T08:57:19.042Z,15.97
2018-04-16T08:59:46.649Z,16.16
2018-04-16T09:02:14.295Z,16.02
2018-04-16T09:04:41.883Z,16.11
2018-04-16T09:07:09.593Z,16.12
2018-04-16T09:09:37.182Z,15.94
2018-04-16T09:12:04.888Z,16.11
2018-04-16T09:14:32.485Z,16.42
2018-04-16T09:17:00.094Z,16.26
2018-04-16T09:19:27.704Z,16.29
2018-04-16T09:21:55.298Z,16.22
2018-04-16T09:24:23.201Z,16.50
2018-04-16T09:26:50.813Z,16.41
2018-04-16T09:29:18.402Z,16.56
2018-04-16T09:31:46.014Z,16.41
2018-04-16T09:34:13.598Z,16.52
2018-04-16T09:36:41.219Z,16.65
2018-04-16T09:39:08.844Z,16.81
2018-04-16T09:44:03.554Z,16.85
2018-04-16T09:46:31.148Z,17.09
2018-04-16T09:48:58.778Z,16.71
2018-04-16T09:51:26.371Z,16.90
2018-04-16T09:53:53.989Z,16.92
2018-04-16T09:56:21.599Z,17.02
2018-04-16T09:58:49.342Z,17.35
2018-04-16T10:01:21.936Z,17.20
2018-04-16T10:03:49.572Z,17.09
2018-04-16T10:06:17.187Z,17.14
2018-04-16T10:08:44.802Z,17.09
2018-04-16T10:11:12.428Z,17.22
2018-04-16T10:13:40.310Z,16.91
2018-04-16T10:16:08.967Z,17.23
2018-04-16T10:18:36.677Z,17.30
2018-04-16T10:21:04.346Z,17.18
2018-04-16T10:23:31.930Z,17.17
2018-04-16T10:25:59.524Z,17.04
2018-04-16T10:28:27.147Z,17.00
2018-04-16T10:30:54.754Z,17.28
2018-04-16T10:33:22.396Z,17.16
2018-04-16T10:35:49.983Z,17.09
2018-04-16T10:38:17.632Z,17.22
2018-04-16T10:40:45.253Z,17.44
2018-04-16T10:43:12.848Z,17.43
2018-04-16T10:45:40.460Z,17.55
2018-04-16T10:48:08.080Z,17.68
2018-04-16T10:50:35.699Z,17.55
2018-04-16T10:53:03.326Z,17.58
2018-04-16T10:55:31.178Z,17.84
2018-04-16T10:57:58.770Z,18.02
2018-04-16T11:00:26.369Z,18.30
2018-04-16T11:02:54.001Z,18.26
2018-04-16T11:05:21.630Z,18.23
2018-04-16T11:07:49.429Z,18.24
2018-04-16T11:10:17.033Z,18.44
2018-04-16T11:12:44.646Z,18.47
2018-04-16T11:15:12.313Z,18.47
2018-04-16T11:17:39.909Z,18.38
2018-04-16T11:20:07.547Z,18.34
2018-04-16T11:22:35.334Z,18.37
2018-04-16T11:25:02.953Z,18.33
2018-04-16T11:27:30.579Z,18.19
2018-04-16T11:29:58.188Z,17.78
2018-04-16T11:32:25.810Z,18.11
2018-04-16T11:34:53.422Z,18.27
2018-04-16T11:37:21.170Z,18.27
2018-04-16T11:39:48.769Z,18.05
2018-04-16T11:42:16.365Z,18.30
2018-04-16T11:44:43.990Z,18.38
2018-04-16T11:47:11.587Z,18.13
2018-04-16T11:49:39.594Z,18.17
2018-04-16T11:52:07.199Z,18.13
2018-04-16T11:54:34.803Z,18.32
2018-04-16T11:57:02.426Z,18.16
2018-04-16T11:59:30.022Z,18.34
2018-04-16T12:01:57.643Z,18.09
2018-04-16T12:04:25.280Z,17.95
2018-04-16T12:06:52.905Z,18.02
2018-04-16T12:09:20.502Z,17.92
2018-04-16T12:11:48.096Z,17.89
2018-04-16T12:14:15.712Z,18.32
2018-04-16T12:16:43.349Z,18.39
2018-04-16T12:19:10.936Z,18.02
2018-04-16T12:21:38.530Z,17.84
2018-04-16T12:24:06.393Z,18.08
2018-04-16T12:26:33.988Z,17.99
2018-04-16T12:29:01.586Z,18.13
2018-04-16T12:31:29.212Z,18.11
2018-04-16T12:33:56.802Z,18.50
2018-04-16T12:36:24.413Z,18.34
2018-04-16T12:38:52.011Z,18.39
2018-04-16T12:41:19.885Z,18.62
2018-04-16T12:43:47.479Z,18.65
2018-04-16T12:46:15.082Z,18.83
2018-04-16T12:48:42.700Z,18.80
2018-04-16T12:51:10.338Z,18.26
2018-04-16T12:53:37.956Z,18.45
2018-04-16T12:56:05.570Z,18.64
2018-04-16T12:58:33.330Z,18.68
2018-04-16T13:01:00.934Z,18.48
2018-04-16T13:03:28.552Z,18.78
2018-04-16T13:05:56.174Z,18.83
2018-04-16T13:08:23.781Z,18.84
2018-04-16T13:10:51.496Z,18.83
2018-04-16T13:13:19.116Z,19.08
2018-04-16T13:15:46.757Z,19.67
2018-04-16T13:18:14.349Z,19.96
2018-04-16T13:20:41.959Z,19.81
2018-04-16T13:23:09.591Z,19.58
2018-04-16T13:25:37.191Z,19.20
2018-04-16T13:28:04.818Z,19.55
2018-04-16T13:30:32.406Z,19.55
2018-04-16T13:33:00.090Z,20.19
2018-04-16T13:35:27.681Z,19.80
2018-04-16T13:37:55.308Z,19.76
2018-04-16T13:40:22.935Z,19.88
2018-04-16T13:42:50.528Z,19.68
2018-04-16T13:45:18.150Z,19.51
2018-04-16T13:47:45.742Z,19.46
2018-04-16T13:50:13.551Z,19.52
2018-04-16T13:52:41.158Z,19.80
2018-04-16T13:55:08.844Z,20.80
2018-04-16T13:57:36.466Z,20.81
2018-04-16T14:00:04.054Z,21.08
2018-04-16T14:02:31.688Z,20.93
2018-04-16T14:04:59.422Z,20.89
2018-04-16T14:07:27.252Z,20.34
2018-04-16T14:09:54.847Z,19.85
2018-04-16T14:12:22.449Z,20.09
2018-04-16T14:14:50.074Z,20.07
2018-04-16T14:17:17.675Z,19.89
2018-04-16T14:19:45.290Z,19.84
2018-04-16T14:22:12.880Z,19.77
2018-04-16T14:24:40.512Z,19.62
2018-04-16T14:27:08.103Z,19.44
2018-04-16T14:29:35.690Z,19.42
2018-04-16T14:32:03.312Z,19.25
2018-04-16T14:34:30.907Z,19.32
2018-04-16T14:36:58.535Z,19.19
2018-04-16T14:39:26.134Z,19.41
2018-04-16T14:41:54.225Z,19.12
2018-04-16T14:44:21.809Z,19.26
2018-04-16T14:46:49.405Z,19.39
2018-04-16T14:49:17.035Z,19.44
2018-04-16T14:51:44.627Z,19.66
2018-04-16T14:54:12.240Z,19.94
2018-04-16T14:56:39.842Z,20.13
2018-04-16T14:59:07.662Z,20.48
2018-04-16T15:01:35.255Z,20.46
2018-04-16T15:04:02.856Z,20.31
2018-04-16T15:06:30.471Z,20.15
2018-04-16T15:08:58.068Z,20.34
2018-04-16T15:11:25.703Z,20.34
2018-04-16T15:13:53.286Z,20.39
2018-04-16T15:16:20.903Z,20.12
2018-04-16T15:18:48.501Z,20.13
2018-04-16T15:21:16.132Z,20.12
2018-04-16T15:23:43.731Z,20.40
2018-04-16T15:26:11.337Z,20.53
2018-04-16T15:28:38.987Z,20.25
2018-04-16T15:31:06.653Z,20.14
2018-04-16T15:33:34.276Z,19.93
2018-04-16T15:36:01.866Z,19.77
2018-04-16T15:38:29.491Z,19.85
2018-04-16T15:40:57.100Z,19.87
2018-04-16T15:43:24.699Z,19.74
2018-04-16T15:45:52.313Z,19.63
2018-04-16T15:48:19.898Z,19.68
2018-04-16T15:50:47.511Z,19.67
2018-04-16T15:53:15.111Z,19.74
2018-04-16T15:55:42.731Z,19.81
2018-04-16T15:58:10.319Z,19.81
2018-04-16T16:00:38.042Z,20.03
2018-04-16T16:03:05.687Z,20.09
2018-04-16T16:05:33.274Z,19.87
2018-04-16T16:08:00.884Z,19.79
2018-04-16T16:10:28.479Z,19.86
2018-04-16T16:12:56.509Z,19.69
2018-04-16T16:15:24.094Z,19.63
2018-04-16T16:17:51.695Z,19.71
2018-04-16T16:20:19.381Z,19.70
2018-04-16T16:22:46.982Z,19.64
2018-04-16T16:25:14.600Z,19.67
2018-04-16T16:27:42.190Z,19.63
2018-04-16T16:30:10.102Z,19.63
2018-04-16T16:32:37.691Z,19.79
2018-04-16T16:35:05.363Z,19.75
2018-04-16T16:37:32.986Z,19.83
2018-04-16T16:40:00.584Z,19.82
2018-04-16T16:42:28.198Z,19.97
2018-04-16T16:44:55.785Z,20.05
2018-04-16T16:47:23.766Z,20.08
2018-04-16T16:49:51.368Z,19.84
2018-04-16T16:52:18.975Z,19.79
2018-04-16T16:54:46.605Z,19.79
2018-04-16T16:57:14.194Z,19.96
2018-04-16T16:59:41.824Z,19.85
2018-04-16T17:02:09.418Z,19.92
2018-04-16T17:04:37.063Z,19.89
2018-04-16T17:07:04.646Z,19.64
2018-04-16T17:09:32.234Z,19.58
2018-04-16T17:11:59.850Z,19.57
2018-04-16T17:14:27.447Z,19.40
2018-04-16T17:16:55.246Z,19.25
2018-04-16T17:19:22.838Z,19.07
2018-04-16T17:21:50.437Z,19.03
2018-04-16T17:24:18.055Z,18.95
2018-04-16T17:26:45.647Z,19.00
2018-04-16T17:29:13.535Z,19.15
2018-04-16T17:31:41.171Z,19.03
2018-04-16T17:34:08.750Z,18.89
2018-04-16T17:36:36.512Z,18.89
2018-04-16T17:39:04.145Z,18.75
2018-04-16T17:41:31.762Z,18.69
2018-04-16T17:43:59.366Z,18.66
2018-04-16T17:46:27.378Z,18.43
2018-04-16T17:48:54.971Z,18.43
2018-04-16T17:51:22.799Z,18.39
2018-04-16T17:53:50.460Z,18.18
2018-04-16T17:56:18.147Z,18.06
2018-04-16T17:58:45.815Z,17.98
2018-04-16T18:01:13.402Z,17.99
2018-04-16T18:03:41.542Z,18.00
2018-04-16T18:06:09.142Z,18.04
2018-04-16T18:08:36.726Z,18.05
2018-04-16T18:11:04.434Z,17.91
2018-04-16T18:13:32.028Z,17.72
2018-04-16T18:15:59.734Z,17.64
2018-04-16T18:18:27.323Z,17.70
2018-04-16T18:20:55.252Z,17.62
2018-04-16T18:23:22.840Z,17.68
2018-04-16T18:25:50.431Z,17.64
2018-04-16T18:28:18.052Z,17.54
2018-04-16T18:30:45.657Z,17.48
2018-04-16T18:33:13.269Z,17.43
2018-04-16T18:35:40.878Z,17.32
2018-04-16T18:38:08.683Z,17.29
2018-04-16T18:40:36.284Z,17.23
2018-04-16T18:43:03.883Z,17.20
2018-04-16T18:45:31.516Z,17.19
2018-04-16T18:47:59.110Z,17.18
2018-04-16T18:50:26.722Z,17.18
2018-04-16T18:52:54.365Z,17.14
2018-04-16T18:55:22.474Z,17.13
2018-04-16T18:57:50.051Z,17.08
2018-04-16T19:00:17.647Z,17.00
2018-04-16T19:02:45.275Z,16.94
2018-04-16T19:05:12.863Z,16.85
2018-04-16T19:07:40.510Z,16.79
2018-04-16T19:10:08.105Z,16.76
2018-04-16T19:12:35.734Z,16.71
2018-04-16T19:15:03.338Z,16.67
2018-04-16T19:17:30.949Z,16.71
2018-04-16T19:19:58.556Z,16.68
2018-04-16T19:22:26.182Z,16.65
2018-04-16T19:24:53.780Z,16.59
2018-04-16T19:27:26.856Z,16.49
2018-04-16T19:29:54.455Z,16.41
2018-04-16T19:32:22.194Z,16.28
2018-04-16T19:34:55.257Z,16.24
2018-04-16T19:37:22.875Z,16.21
2018-04-16T19:39:50.499Z,16.20
2018-04-16T19:42:23.561Z,16.08
2018-04-16T19:44:51.179Z,15.92
2018-04-16T19:47:18.770Z,15.89
2018-04-16T19:49:51.890Z,15.77
2018-04-16T19:52:19.499Z,15.69
2018-04-16T19:54:47.263Z,15.73
2018-04-16T19:57:20.473Z,15.71
2018-04-16T19:59:48.200Z,15.70
2018-04-16T20:02:21.267Z,15.66
2018-04-16T20:04:48.897Z,15.63
2018-04-16T20:07:16.521Z,15.60
2018-04-16T20:09:44.118Z,15.52
2018-04-16T20:12:11.751Z,15.40
2018-04-16T20:14:39.343Z,15.36
2018-04-16T20:17:06.970Z,15.31
2018-04-16T20:19:34.562Z,15.22
2018-04-16T20:22:02.493Z,15.21
2018-04-16T20:24:30.103Z,15.16
2018-04-16T20:26:57.704Z,15.10
2018-04-16T20:29:25.359Z,15.03
2018-04-16T20:31:52.953Z,15.02
2018-04-16T20:34:20.573Z,15.01
2018-04-16T20:36:48.166Z,15.00
2018-04-16T20:39:15.803Z,14.97
2018-04-16T20:41:43.425Z,14.98
2018-04-16T20:44:11.027Z,14.97
2018-04-16T20:46:38.647Z,14.95
2018-04-16T20:49:06.244Z,14.96
2018-04-16T20:51:33.880Z,14.83
2018-04-16T20:54:01.477Z,14.75
2018-04-16T20:56:29.124Z,14.65
2018-04-16T20:58:56.740Z,14.67
2018-04-16T21:01:24.326Z,14.67
2018-04-16T21:03:51.971Z,14.61
2018-04-16T21:06:19.567Z,14.56
2018-04-16T21:08:47.190Z,14.43
2018-04-16T21:11:14.779Z,14.40
2018-04-16T21:13:42.419Z,14.35
2018-04-16T21:16:10.017Z,14.33
2018-04-16T21:18:37.783Z,14.20
2018-04-16T21:21:05.395Z,14.11
2018-04-16T21:23:32.986Z,14.03
2018-04-16T21:26:00.611Z,14.09
2018-04-16T21:28:28.214Z,14.06
2018-04-16T21:30:55.985Z,14.04
2018-04-16T21:33:23.601Z,13.98
2018-04-16T21:35:51.207Z,13.91
2018-04-16T21:38:18.822Z,13.91
2018-04-16T21:40:46.419Z,13.95
2018-04-16T21:43:14.042Z,13.98
2018-04-16T21:45:41.691Z,13.91
2018-04-16T21:48:09.595Z,13.85
2018-04-16T21:50:37.186Z,13.82
2018-04-16T21:53:05.571Z,13.68
2018-04-16T21:55:33.192Z,13.70
2018-04-16T21:58:00.784Z,13.68
2018-04-16T22:00:28.403Z,13.72
2018-04-16T22:02:55.995Z,13.75
2018-04-16T22:05:23.814Z,13.82
2018-04-16T22:07:51.436Z,13.91
2018-04-16T22:10:19.054Z,13.93
2018-04-16T22:12:46.671Z,13.95
2018-04-16T22:15:14.259Z,14.10
2018-04-16T22:17:41.876Z,13.72
2018-04-16T22:20:09.474Z,13.66
2018-04-16T22:22:37.210Z,13.67
2018-04-16T22:25:04.827Z,13.68
2018-04-16T22:27:32.572Z,13.77
2018-04-16T22:30:00.187Z,13.81
2018-04-16T22:32:27.895Z,13.81
2018-04-16T22:34:55.489Z,13.89
2018-04-16T22:37:23.101Z,13.91
2018-04-16T22:39:50.698Z,13.84
2018-04-16T22:42:18.315Z,13.83
2018-04-16T22:44:45.907Z,13.86
2018-04-16T22:47:13.627Z,13.73
2018-04-16T22:49:41.219Z,13.64
2018-04-16T22:52:08.815Z,13.58
2018-04-16T22:54:36.545Z,13.52
2018-04-16T22:57:04.139Z,13.49
2018-04-16T22:59:31.760Z,13.53
2018-04-16T23:01:59.350Z,13.44
2018-04-16T23:04:26.956Z,13.43
2018-04-16T23:06:54.556Z,13.43
2018-04-16T23:09:22.169Z,13.38
2018-04-16T23:11:49.764Z,13.33
2018-04-16T23:14:17.389Z,13.30
2018-04-16T23:16:44.985Z,13.32
2018-04-16T23:19:12.636Z,13.33
2018-04-16T23:21:40.231Z,13.34
2018-04-16T23:24:08.111Z,13.36
2018-04-16T23:26:35.714Z,13.37
2018-04-16T23:29:03.315Z,13.33
2018-04-16T23:31:30.927Z,13.36
2018-04-16T23:33:58.600Z,13.34
2018-04-16T23:36:26.225Z,13.35
2018-04-16T23:38:53.820Z,13.31
2018-04-16T23:41:21.438Z,13.25
2018-04-16T23:43:49.030Z,13.20
2018-04-16T23:46:16.654Z,13.12
2018-04-16T23:48:44.247Z,13.05
2018-04-16T23:51:12.132Z,13.05
2018-04-16T23:53:39.722Z,13.08
2018-04-16T23:56:07.309Z,13.16
2018-04-16T23:58:34.929Z,13.02
